createdAt,value
2019-01-23T00:07:31.816Z,50
2019-01-23T00:17:35.125Z,50
2019-01-23T00:27:38.491Z,49
2019-01-23T00:37:41.811Z,50
2019-01-23T00:47:45.158Z,49
2019-01-23T00:57:48.525Z,50
2019-01-23T01:07:51.883Z,49
2019-01-23T01:17:55.198Z,49
2019-01-23T01:27:58.541Z,49
2019-01-23T01:38:01.853Z,49
2019-01-23T01:48:05.198Z,49
2019-01-23T01:58:10.480Z,48
2019-01-23T02:08:13.875Z,49
2019-01-23T02:18:17.199Z,49
2019-01-23T02:28:20.538Z,48
2019-01-23T02:38:23.852Z,49
2019-01-23T02:48:27.183Z,48
2019-01-23T02:58:30.502Z,48
2019-01-23T03:08:33.875Z,48
2019-01-23T03:18:37.199Z,48
2019-01-23T03:28:40.533Z,48
2019-01-23T03:38:43.870Z,48
2019-01-23T03:48:47.185Z,48
2019-01-23T03:58:50.552Z,48
2019-01-23T04:08:53.910Z,48
2019-01-23T04:18:57.354Z,48
2019-01-23T04:29:00.864Z,49
2019-01-23T04:39:04.358Z,49
2019-01-23T04:49:07.851Z,50
2019-01-23T04:59:11.389Z,50
2019-01-23T05:09:14.897Z,50
2019-01-23T05:19:18.542Z,51
2019-01-23T05:29:22.207Z,51
2019-01-23T05:39:25.889Z,51
2019-01-23T05:49:29.565Z,52
2019-01-23T05:59:33.242Z,52
2019-01-23T06:09:36.929Z,52
2019-01-23T06:19:40.612Z,52
2019-01-23T06:29:44.304Z,45
2019-01-23T06:39:47.988Z,48
2019-01-23T06:49:51.662Z,50
2019-01-23T06:59:55.331Z,50
2019-01-23T07:09:58.995Z,49
2019-01-23T07:20:02.642Z,51
2019-01-23T07:30:06.304Z,50
2019-01-23T07:40:09.887Z,51
2019-01-23T07:50:13.402Z,52
2019-01-23T08:00:17.141Z,54
2019-01-23T08:10:20.821Z,56
2019-01-23T08:20:24.497Z,60
2019-01-23T08:30:28.161Z,64
2019-01-23T08:40:31.833Z,62
2019-01-23T08:50:35.513Z,62
2019-01-23T09:00:46.443Z,61
2019-01-23T09:10:50.143Z,61
2019-01-23T09:20:53.807Z,59
2019-01-23T09:30:57.471Z,58
2019-01-23T09:41:01.150Z,60
2019-01-23T09:51:04.820Z,60
2019-01-23T10:01:08.495Z,60
2019-01-23T10:11:12.173Z,61
2019-01-23T10:21:15.849Z,61
2019-01-23T10:31:19.497Z,60
2019-01-23T10:41:23.181Z,61
2019-01-23T10:51:26.850Z,61
2019-01-23T11:01:30.543Z,58
2019-01-23T11:11:34.208Z,60
2019-01-23T11:21:37.912Z,64
2019-01-23T11:31:41.568Z,68
2019-01-23T11:41:45.246Z,69
2019-01-23T11:51:48.917Z,70
2019-01-23T12:01:52.596Z,70
2019-01-23T12:11:56.274Z,33
2019-01-23T12:21:59.958Z,71
2019-01-23T12:32:03.625Z,71
2019-01-23T12:42:07.301Z,69
2019-01-23T12:52:10.982Z,71
2019-01-23T13:02:14.662Z,73
2019-01-23T13:12:18.340Z,73
2019-01-23T13:22:22.002Z,66
2019-01-23T13:32:25.662Z,63
2019-01-23T13:42:29.330Z,62
2019-01-23T13:52:33.027Z,62
2019-01-23T14:02:36.678Z,62
2019-01-23T14:12:40.382Z,61
2019-01-23T14:22:44.042Z,62
2019-01-23T14:32:47.741Z,62
2019-01-23T14:42:51.410Z,63
2019-01-23T14:52:55.082Z,62
2019-01-23T15:02:58.791Z,62
2019-01-23T15:13:02.457Z,64
2019-01-23T15:23:06.121Z,71
2019-01-23T15:33:40.109Z,67
2019-01-23T15:43:43.791Z,66
2019-01-23T15:53:47.433Z,66
2019-01-23T16:03:51.085Z,76
2019-01-23T16:13:54.771Z,74
2019-01-23T16:23:58.444Z,71
2019-01-23T16:34:02.092Z,68
2019-01-23T16:44:05.755Z,66
2019-01-23T16:54:09.435Z,66
2019-01-23T17:04:13.112Z,65
2019-01-23T17:14:16.765Z,66
